Terminal Aerodrome Forecast
Issued by NWS Wakefield, VA

Home | Current Version | Previous Version | Text Only | Print | Product List | Glossary On
Versions: 1 2 3 4 5 6 7 8 9 10 11 12 13 14 15 16 17 18 19 20 21
000
FTUS41 KAKQ 021500 AAA
TAFSBY
TAF AMD
KSBY 021538Z 0216/0312 02007KT P6SM SCT015 BKN030
     FM021700 02008KT P6SM SCT030
     FM022200 04003KT P6SM SCT030
     FM030500 VRB02KT 4SM BR SCT004 BKN015=

USA.gov is the U.S. government's official web portal to all federal, state and local government web resources and services.